| time (UTC) | temp C | wind direction | speed KPH | gust KPH | rain 1hr cm | rain 24hr cm | rain mn cm | humidity % | barometer mb |
| 20260507155503 | 14 | 1 | 3.2 | 9.7 | 0.00 | 2.11 | 0.58 | 64 | 1003.6 |
| 20260507155003 | 14 | 4 | 4.8 | 9.7 | 0.00 | 2.11 | 0.58 | 64 | 1003.8 |
| 20260507154503 | 14 | 13 | 6.4 | 14.5 | 0.00 | 2.11 | 0.58 | 67 | 1003.8 |
| 20260507154213 | 14 | 14 | 8.0 | 14.5 | 0.00 | 2.11 | 0.58 | 66 | 1003.8 |
| 20260507153713 | 14 | 12 | 4.8 | 12.9 | 0.00 | 2.11 | 0.58 | 68 | 1003.8 |
| 20260507153004 | 13 | 360 | 4.8 | 14.5 | 0.00 | 2.11 | 0.58 | 67 | 1004.0 |
| 20260507152503 | 13 | 358 | 8.0 | 19.3 | 0.00 | 2.11 | 0.58 | 68 | 1004.1 |
| 20260507152213 | 13 | 353 | 8.0 | 19.3 | 0.00 | 2.11 | 0.58 | 65 | 1004.1 |
| 20260507151504 | 13 | 351 | 11.3 | 22.5 | 0.00 | 2.11 | 0.58 | 66 | 1004.1 |
| 20260507151003 | 13 | 355 | 11.3 | 19.3 | 0.00 | 2.11 | 0.58 | 70 | 1004.0 |
| 20260507150503 | 13 | 353 | 8.0 | 16.1 | 0.00 | 2.11 | 0.58 | 70 | 1004.0 |
| 20260507150003 | 13 | 350 | 9.7 | 19.3 | 0.00 | 2.11 | 0.58 | 68 | 1004.0 |
| 20260507145503 | 13 | 351 | 11.3 | 19.3 | 0.00 | 2.11 | 0.58 | 70 | 1004.1 |
| 20260507145003 | 13 | 345 | 6.4 | 17.7 | 0.00 | 2.11 | 0.58 | 70 | 1004.2 |
| 20260507144503 | 13 | 337 | 4.8 | 11.3 | 0.00 | 2.11 | 0.58 | 72 | 1004.2 |
| 20260507144213 | 13 | 341 | 4.8 | 12.9 | 0.00 | 2.11 | 0.58 | 71 | 1004.3 |
| 20260507143714 | 13 | 343 | 4.8 | 12.9 | 0.00 | 2.11 | 0.58 | 71 | 1004.3 |
| 20260507143003 | 13 | 334 | 4.8 | 14.5 | 0.00 | 2.11 | 0.58 | 72 | 1004.4 |
| 20260507142504 | 12 | 342 | 6.4 | 14.5 | 0.00 | 2.11 | 0.58 | 74 | 1004.6 |
| 20260507142003 | 12 | 345 | 6.4 | 12.9 | 0.00 | 2.11 | 0.58 | 75 | 1004.5 |
| 20260507141503 | 12 | 338 | 4.8 | 14.5 | 0.00 | 2.11 | 0.58 | 76 | 1004.5 |
| 20260507141003 | 12 | 332 | 6.4 | 14.5 | 0.00 | 2.11 | 0.58 | 76 | 1004.7 |
| 20260507140503 | 12 | 337 | 6.4 | 16.1 | 0.00 | 2.11 | 0.58 | 78 | 1004.8 |
| 20260507140004 | 12 | 341 | 6.4 | 16.1 | 0.00 | 2.11 | 0.58 | 77 | 1004.8 |
| 20260507135503 | 12 | 339 | 3.2 | 8.0 | 0.00 | 2.11 | 0.58 | 79 | 1004.7 |
| 20260507135003 | 11 | 338 | 3.2 | 8.0 | 0.00 | 2.11 | 0.58 | 81 | 1004.7 |
| 20260507134503 | 11 | 337 | 3.2 | 11.3 | 0.00 | 2.11 | 0.58 | 81 | 1005.0 |
| 20260507134003 | 11 | 344 | 4.8 | 12.9 | 0.00 | 2.11 | 0.58 | 81 | 1005.1 |
| 20260507133503 | 11 | 349 | 6.4 | 12.9 | 0.00 | 2.11 | 0.58 | 82 | 1005.1 |
| 20260507133003 | 11 | 351 | 8.0 | 24.1 | 0.00 | 2.11 | 0.58 | 82 | 1005.2 |
| 20260507132503 | 10 | 350 | 14.5 | 30.6 | 0.00 | 2.11 | 0.58 | 83 | 1005.2 |
| 20260507132003 | 10 | 349 | 19.3 | 30.6 | 0.00 | 2.11 | 0.58 | 84 | 1004.9 |
| 20260507131505 | 10 | 350 | 19.3 | 33.8 | 0.00 | 2.11 | 0.58 | 85 | 1005.0 |
| 20260507131003 | 10 | 349 | 17.7 | 33.8 | 0.00 | 2.11 | 0.58 | 85 | 1004.9 |
| 20260507130503 | 10 | 345 | 16.1 | 27.4 | 0.00 | 2.11 | 0.58 | 86 | 1005.1 |
| 20260507130004 | 10 | 345 | 16.1 | 29.0 | 0.00 | 2.11 | 0.58 | 87 | 1005.1 |
| 20260507125503 | 9 | 348 | 17.7 | 30.6 | 0.00 | 2.11 | 0.58 | 88 | 1005.0 |
| 20260507125003 | 9 | 352 | 12.9 | 30.6 | 0.00 | 2.11 | 0.58 | 89 | 1004.6 |
| 20260507124713 | 9 | 353 | 11.3 | 20.9 | 0.00 | 2.11 | 0.58 | 90 | 1004.8 |
| 20260507124003 | 8 | 351 | 9.7 | 17.7 | 0.00 | 2.11 | 0.58 | 90 | 1004.8 |
| 20260507123504 | 8 | 343 | 8.0 | 17.7 | 0.00 | 2.11 | 0.58 | 91 | 1004.8 |
| 20260507123004 | 8 | 340 | 8.0 | 12.9 | 0.00 | 2.11 | 0.58 | 91 | 1004.5 |
| 20260507122503 | 8 | 340 | 6.4 | 12.9 | 0.00 | 2.11 | 0.58 | 92 | 1004.4 |
| 20260507122214 | 8 | 342 | 6.4 | 12.9 | 0.00 | 2.11 | 0.58 | 92 | 1004.3 |
| 20260507121504 | 8 | 351 | 4.8 | 12.9 | 0.00 | 2.11 | 0.58 | 92 | 1004.9 |
| 20260507121003 | 8 | 345 | 3.2 | 11.3 | 0.00 | 2.11 | 0.58 | 93 | 1004.5 |
| 20260507120503 | 8 | 340 | 4.8 | 12.9 | 0.00 | 2.11 | 0.58 | 93 | 1004.9 |
| 20260507120004 | 8 | 344 | 6.4 | 14.5 | 0.00 | 2.11 | 0.58 | 93 | 1005.3 |
| 20260507115503 | 8 | 346 | 9.7 | 16.1 | 0.00 | 2.11 | 0.58 | 93 | 1005.5 |
| 20260507115214 | 8 | 345 | 9.7 | 16.1 | 0.00 | 2.11 | 0.58 | 94 | 1005.0 |
| 20260507114503 | 8 | 336 | 4.8 | 12.9 | 0.00 | 2.11 | 0.58 | 94 | 1004.8 |
| 20260507114214 | 8 | 336 | 4.8 | 12.9 | 0.00 | 2.11 | 0.58 | 94 | 1005.2 |
| 20260507113503 | 8 | 337 | 1.6 | 8.0 | 0.00 | 2.11 | 0.58 | 94 | 1005.9 |
| 20260507113003 | 8 | 337 | 1.6 | 6.4 | 0.00 | 2.11 | 0.58 | 94 | 1005.4 |
| 20260507112503 | 8 | 337 | 1.6 | 6.4 | 0.00 | 2.11 | 0.58 | 94 | 1005.6 |
| 20260507112003 | 8 | 337 | 1.6 | 8.0 | 0.00 | 2.11 | 0.58 | 94 | 1005.7 |
| 20260507111503 | 8 | 337 | 3.2 | 11.3 | 0.00 | 2.11 | 0.58 | 94 | 1005.5 |
| 20260507111003 | 7 | 337 | 4.8 | 11.3 | 0.00 | 2.11 | 0.58 | 94 | 1005.2 |
| 20260507110503 | 7 | 333 | 6.4 | 14.5 | 0.00 | 2.11 | 0.58 | 94 | 1005.1 |
| 20260507110003 | 7 | 334 | 6.4 | 14.5 | 0.00 | 2.11 | 0.58 | 94 | 1005.0 |
| 20260507105713 | 7 | 335 | 6.4 | 14.5 | 0.00 | 2.11 | 0.58 | 94 | 1005.3 |
| 20260507105003 | 7 | 341 | 4.8 | 14.5 | 0.00 | 2.11 | 0.58 | 94 | 1005.2 |
| 20260507104504 | 7 | 339 | 4.8 | 11.3 | 0.00 | 2.11 | 0.58 | 95 | 1004.4 |
| 20260507104005 | 7 | 337 | 6.4 | 14.5 | 0.00 | 2.11 | 0.58 | 95 | 1004.8 |
| 20260507103713 | 7 | 338 | 6.4 | 16.1 | 0.00 | 2.11 | 0.58 | 95 | 1004.8 |
| 20260507103213 | 7 | 345 | 9.7 | 17.7 | 0.00 | 2.11 | 0.58 | 95 | 1004.8 |
| 20260507102503 | 8 | 346 | 8.0 | 17.7 | 0.00 | 2.11 | 0.58 | 95 | 1004.4 |
| 20260507102003 | 8 | 343 | 4.8 | 12.9 | 0.00 | 2.11 | 0.58 | 95 | 1004.2 |
| 20260507101503 | 8 | 343 | 3.2 | 12.9 | 0.00 | 2.11 | 0.58 | 96 | 1004.5 |
| 20260507101003 | 8 | 343 | 3.2 | 9.7 | 0.00 | 2.11 | 0.58 | 96 | 1004.4 |
| 20260507100503 | 8 | 343 | 4.8 | 9.7 | 0.00 | 2.11 | 0.58 | 96 | 1004.5 |
| 20260507100003 | 8 | 343 | 6.4 | 14.5 | 0.00 | 2.11 | 0.58 | 96 | 1004.3 |
| 20260507095503 | 8 | 346 | 9.7 | 14.5 | 0.00 | 2.11 | 0.58 | 96 | 1004.3 |
| 20260507095003 | 8 | 349 | 9.7 | 17.7 | 0.00 | 2.11 | 0.58 | 96 | 1003.9 |
| 20260507094503 | 8 | 351 | 12.9 | 19.3 | 0.00 | 2.11 | 0.58 | 96 | 1004.2 |
| 20260507094003 | 8 | 349 | 14.5 | 19.3 | 0.00 | 2.11 | 0.58 | 96 | 1004.0 |
| 20260507093504 | 8 | 342 | 12.9 | 19.3 | 0.00 | 2.11 | 0.58 | 96 | 1004.1 |
| 20260507093003 | 8 | 335 | 12.9 | 20.9 | 0.00 | 2.11 | 0.58 | 96 | 1004.4 |
| 20260507092503 | 8 | 333 | 14.5 | 22.5 | 0.00 | 2.11 | 0.58 | 96 | 1004.7 |
| 20260507092003 | 8 | 331 | 12.9 | 25.7 | 0.00 | 2.11 | 0.58 | 96 | 1004.5 |
| 20260507091503 | 8 | 324 | 9.7 | 25.7 | 0.00 | 2.11 | 0.58 | 96 | 1004.4 |
| 20260507091003 | 8 | 324 | 8.0 | 16.1 | 0.00 | 2.11 | 0.58 | 97 | 1004.7 |
| 20260507090714 | 8 | 326 | 8.0 | 16.1 | 0.00 | 2.11 | 0.58 | 97 | 1004.5 |
| 20260507090004 | 8 | 333 | 8.0 | 16.1 | 0.00 | 2.11 | 0.58 | 97 | 1004.4 |
| 20260507085503 | 8 | 339 | 8.0 | 16.1 | 0.00 | 2.11 | 0.58 | 97 | 1004.0 |
| 20260507085004 | 8 | 342 | 9.7 | 19.3 | 0.00 | 2.11 | 0.58 | 97 | 1003.8 |
| 20260507084504 | 8 | 346 | 12.9 | 19.3 | 0.00 | 2.11 | 0.58 | 97 | 1003.5 |
| 20260507084213 | 8 | 346 | 12.9 | 19.3 | 0.00 | 2.11 | 0.58 | 97 | 1003.7 |
| 20260507083503 | 8 | 348 | 9.7 | 20.9 | 0.00 | 2.11 | 0.58 | 97 | 1003.7 |
| 20260507083003 | 8 | 349 | 12.9 | 20.9 | 0.03 | 2.11 | 0.58 | 97 | 1003.8 |
| 20260507082503 | 8 | 349 | 16.1 | 25.7 | 0.03 | 2.11 | 0.58 | 97 | 1003.8 |
| 20260507082003 | 8 | 348 | 17.7 | 25.7 | 0.03 | 2.11 | 0.58 | 97 | 1003.8 |
| 20260507081503 | 8 | 347 | 17.7 | 24.1 | 0.03 | 2.11 | 0.58 | 97 | 1003.8 |
| 20260507081003 | 9 | 346 | 16.1 | 24.1 | 0.03 | 2.11 | 0.58 | 97 | 1003.7 |
| 20260507080503 | 9 | 343 | 14.5 | 24.1 | 0.03 | 2.11 | 0.58 | 97 | 1003.6 |
| 20260507080005 | 9 | 339 | 9.7 | 20.9 | 0.03 | 2.11 | 0.58 | 98 | 1003.5 |
| 20260507075503 | 9 | 341 | 8.0 | 14.5 | 0.03 | 2.11 | 0.58 | 98 | 1003.3 |
| 20260507075003 | 9 | 343 | 8.0 | 14.5 | 0.03 | 2.11 | 0.58 | 98 | 1003.3 |
| 20260507074503 | 9 | 341 | 6.4 | 12.9 | 0.05 | 2.11 | 0.58 | 98 | 1003.5 |
| 20260507074214 | 9 | 342 | 6.4 | 16.1 | 0.05 | 2.11 | 0.58 | 97 | 1003.4 |
| 20260507073503 | 10 | 339 | 11.3 | 17.7 | 0.05 | 2.11 | 0.58 | 97 | 1003.2 |
| 20260507073003 | 10 | 338 | 11.3 | 17.7 | 0.03 | 2.08 | 0.56 | 97 | 1003.1 |
| 20260507072503 | 10 | 337 | 9.7 | 16.1 | 0.03 | 2.08 | 0.56 | 97 | 1003.2 |
| 20260507072003 | 10 | 334 | 8.0 | 16.1 | 0.03 | 2.08 | 0.56 | 97 | 1003.2 |
| 20260507071504 | 10 | 332 | 8.0 | 14.5 | 0.05 | 2.08 | 0.56 | 98 | 1003.0 |
| 20260507071003 | 10 | 327 | 6.4 | 12.9 | 0.13 | 2.08 | 0.56 | 98 | 1002.9 |
| 20260507070504 | 10 | 322 | 6.4 | 14.5 | 0.25 | 2.08 | 0.56 | 98 | 1003.0 |
| 20260507070005 | 10 | 321 | 6.4 | 14.5 | 0.33 | 2.08 | 0.56 | 98 | 1003.0 |
| 20260507065503 | 10 | 310 | 4.8 | 14.5 | 0.53 | 2.08 | 0.56 | 98 | 1003.0 |
| 20260507065003 | 10 | 297 | 3.2 | 14.5 | 0.53 | 2.08 | 0.56 | 98 | 1003.1 |
| 20260507064503 | 10 | 284 | 1.6 | 6.4 | 0.51 | 2.06 | 0.53 | 97 | 1002.8 |
| 20260507064003 | 10 | 280 | 1.6 | 6.4 | 0.51 | 2.06 | 0.53 | 97 | 1002.7 |
| 20260507063503 | 10 | 278 | 1.6 | 9.7 | 0.51 | 2.06 | 0.53 | 97 | 1002.4 |
| 20260507063003 | 10 | 282 | 1.6 | 11.3 | 0.51 | 2.06 | 0.53 | 97 | 1002.9 |
| 20260507062503 | 10 | 289 | 1.6 | 12.9 | 0.51 | 2.06 | 0.53 | 97 | 1002.8 |
| 20260507062003 | 10 | 312 | 4.8 | 16.1 | 0.53 | 2.06 | 0.53 | 97 | 1002.7 |
| 20260507061503 | 10 | 311 | 8.0 | 17.7 | 0.51 | 2.03 | 0.51 | 97 | 1002.7 |
| 20260507061004 | 10 | 284 | 6.4 | 17.7 | 0.43 | 1.96 | 0.43 | 97 | 1002.9 |
| 20260507060503 | 10 | 254 | 4.8 | 17.7 | 0.30 | 1.83 | 0.30 | 97 | 1004.3 |
| 20260507060003 | 10 | 238 | 4.8 | 19.3 | 0.23 | 1.75 | 0.23 | 97 | 1003.9 |
| 20260507055503 | 10 | 223 | 4.8 | 19.3 | 0.03 | 1.55 | 0.03 | 97 | 1003.0 |
| 20260507055003 | 10 | 221 | 6.4 | 20.9 | 0.03 | 1.55 | 0.03 | 97 | 1002.8 |
| 20260507054503 | 10 | 225 | 6.4 | 20.9 | 0.03 | 1.55 | 0.03 | 97 | 1002.8 |
| 20260507054003 | 10 | 228 | 6.4 | 17.7 | 0.03 | 1.55 | 0.03 | 97 | 1002.7 |
| 20260507053504 | 10 | 230 | 8.0 | 24.1 | 0.03 | 1.55 | 0.03 | 97 | 1002.8 |
| 20260507053004 | 10 | 229 | 8.0 | 25.7 | 0.03 | 1.55 | 0.03 | 97 | 1002.7 |
| 20260507052713 | 10 | 225 | 8.0 | 25.7 | 0.03 | 1.55 | 0.03 | 97 | 1003.0 |
| 20260507052003 | 10 | 234 | 8.0 | 22.5 | 0.00 | 1.52 | 0.00 | 97 | 1003.0 |
| 20260507051503 | 10 | 241 | 8.0 | 22.5 | 0.00 | 1.52 | 0.00 | 97 | 1003.1 |
| 20260507051003 | 10 | 238 | 4.8 | 19.3 | 0.00 | 1.52 | 0.00 | 97 | 1003.1 |
| 20260507050713 | 10 | 219 | 4.8 | 19.3 | 0.00 | 1.52 | 0.00 | 97 | 1003.0 |
| 20260507050003 | 10 | 206 | 6.4 | 19.3 | 0.00 | 1.52 | 0.00 | 97 | 1002.9 |
| 20260507045503 | 10 | 215 | 8.0 | 20.9 | 0.00 | 1.52 | 0.00 | 97 | 1002.9 |
| 20260507045214 | 10 | 210 | 8.0 | 20.9 | 0.00 | 1.52 | 0.00 | 97 | 1003.0 |
| 20260507044712 | 10 | 200 | 9.7 | 20.9 | 0.00 | 1.52 | 0.00 | 97 | 1002.8 |
| 20260507044003 | 10 | 217 | 6.4 | 24.1 | 0.00 | 1.52 | 0.00 | 97 | 1003.0 |
| 20260507043503 | 10 | 230 | 4.8 | 22.5 | 0.03 | 1.52 | 0.00 | 97 | 1002.9 |
| 20260507043003 | 10 | 212 | 8.0 | 25.7 | 0.03 | 1.52 | 0.00 | 97 | 1003.0 |
| 20260507042714 | 10 | 212 | 9.7 | 27.4 | 0.03 | 1.52 | 0.00 | 97 | 1003.1 |
| 20260507042003 | 10 | 220 | 8.0 | 27.4 | 0.03 | 1.52 | 0.00 | 97 | 1003.3 |
| 20260507041503 | 10 | 216 | 8.0 | 27.4 | 0.05 | 1.52 | 0.00 | 97 | 1003.3 |
| 20260507041003 | 10 | 213 | 11.3 | 27.4 | 0.05 | 1.52 | 0.00 | 97 | 1003.3 |
| 20260507040504 | 10 | 214 | 11.3 | 40.2 | 0.08 | 1.52 | 0.00 | 96 | 1003.4 |
| 20260507040215 | 10 | 215 | 11.3 | 40.2 | 0.08 | 1.52 | 0.00 | 97 | 1003.4 |
| 20260507035503 | 11 | 216 | 11.3 | 33.8 | 0.10 | 1.52 | 1.52 | 96 | 1003.4 |
| 20260507035003 | 11 | 213 | 11.3 | 27.4 | 0.13 | 1.52 | 1.52 | 96 | 1003.5 |
| 20260507034503 | 11 | 213 | 9.7 | 25.7 | 0.15 | 1.52 | 1.52 | 97 | 1003.5 |
| 20260507034003 | 11 | 210 | 11.3 | 32.2 | 0.18 | 1.52 | 1.52 | 97 | 1003.5 |
| 20260507033503 | 11 | 208 | 12.9 | 32.2 | 0.20 | 1.50 | 1.50 | 97 | 1003.6 |
| 20260507033003 | 11 | 204 | 11.3 | 29.0 | 0.25 | 1.50 | 1.50 | 97 | 1003.7 |
| 20260507032504 | 11 | 210 | 9.7 | 35.4 | 0.28 | 1.50 | 1.50 | 97 | 1003.8 |
| 20260507032003 | 11 | 209 | 9.7 | 35.4 | 0.28 | 1.50 | 1.50 | 97 | 1003.9 |
| 20260507031503 | 11 | 202 | 9.7 | 33.8 | 0.28 | 1.47 | 1.47 | 97 | 1003.9 |
| 20260507031003 | 11 | 203 | 9.7 | 22.5 | 0.30 | 1.47 | 1.47 | 96 | 1004.0 |
| 20260507030504 | 11 | 202 | 9.7 | 20.9 | 0.33 | 1.45 | 1.45 | 96 | 1004.0 |
| 20260507030003 | 11 | 203 | 9.7 | 25.7 | 0.38 | 1.45 | 1.45 | 96 | 1004.1 |
| 20260507025503 | 11 | 204 | 11.3 | 25.7 | 0.38 | 1.42 | 1.42 | 96 | 1004.1 |
| 20260507025003 | 11 | 202 | 9.7 | 27.4 | 0.38 | 1.40 | 1.40 | 96 | 1004.3 |
| 20260507024504 | 11 | 200 | 8.0 | 27.4 | 0.38 | 1.37 | 1.37 | 96 | 1004.3 |
| 20260507024003 | 11 | 205 | 6.4 | 14.5 | 0.41 | 1.35 | 1.35 | 96 | 1004.3 |
| 20260507023503 | 11 | 202 | 6.4 | 19.3 | 0.43 | 1.30 | 1.30 | 96 | 1004.4 |
| 20260507023213 | 11 | 199 | 8.0 | 22.5 | 0.43 | 1.27 | 1.27 | 96 | 1004.7 |
| 20260507022714 | 11 | 193 | 11.3 | 27.4 | 0.41 | 1.22 | 1.22 | 96 | 1004.3 |
| 20260507022003 | 11 | 197 | 11.3 | 27.4 | 0.43 | 1.22 | 1.22 | 96 | 1004.5 |
| 20260507021714 | 11 | 197 | 11.3 | 25.7 | 0.43 | 1.19 | 1.19 | 96 | 1004.6 |
| 20260507021003 | 11 | 199 | 9.7 | 29.0 | 0.41 | 1.17 | 1.17 | 96 | 1004.9 |
| 20260507020504 | 11 | 200 | 9.7 | 29.0 | 0.38 | 1.12 | 1.12 | 96 | 1004.8 |
| 20260507020003 | 11 | 198 | 11.3 | 33.8 | 0.36 | 1.07 | 1.07 | 96 | 1005.0 |
| 20260507015503 | 11 | 198 | 12.9 | 33.8 | 0.38 | 1.04 | 1.04 | 96 | 1005.4 |
| 20260507015004 | 11 | 198 | 11.3 | 30.6 | 0.38 | 1.02 | 1.02 | 96 | 1005.7 |
| 20260507014503 | 11 | 204 | 11.3 | 30.6 | 0.41 | 0.99 | 0.99 | 96 | 1005.5 |
| 20260507014214 | 11 | 205 | 9.7 | 29.0 | 0.38 | 0.94 | 0.97 | 96 | 1005.8 |
| 20260507013713 | 11 | 197 | 11.3 | 29.0 | 0.36 | 0.89 | 0.89 | 96 | 1005.9 |
| 20260507013214 | 11 | 203 | 11.3 | 35.4 | 0.33 | 0.84 | 0.84 | 96 | 1006.0 |
| 20260507012713 | 11 | 203 | 12.9 | 35.4 | 0.36 | 0.81 | 0.81 | 96 | 1006.0 |
| 20260507012004 | 11 | 200 | 14.5 | 33.8 | 0.41 | 0.79 | 0.79 | 96 | 1006.2 |
| 20260507011503 | 11 | 198 | 9.7 | 22.5 | 0.43 | 0.76 | 0.76 | 96 | 1006.2 |
| 20260507011214 | 11 | 200 | 9.7 | 24.1 | 0.46 | 0.76 | 0.76 | 96 | 1006.2 |
| 20260507010503 | 11 | 201 | 8.0 | 24.1 | 0.48 | 0.74 | 0.74 | 96 | 1006.2 |
| 20260507010003 | 11 | 196 | 8.0 | 22.5 | 0.51 | 0.71 | 0.71 | 96 | 1006.3 |
| 20260507005503 | 11 | 191 | 6.4 | 19.3 | 0.48 | 0.66 | 0.66 | 96 | 1006.5 |
| 20260507005003 | 11 | 190 | 9.7 | 22.5 | 0.46 | 0.64 | 0.64 | 96 | 1006.6 |
| 20260507004503 | 11 | 191 | 9.7 | 24.1 | 0.41 | 0.58 | 0.58 | 96 | 1006.7 |
| 20260507004003 | 11 | 192 | 8.0 | 24.1 | 0.41 | 0.56 | 0.56 | 95 | 1006.9 |
| 20260507003503 | 11 | 201 | 6.4 | 19.3 | 0.36 | 0.51 | 0.51 | 95 | 1006.8 |
| 20260507003003 | 11 | 202 | 6.4 | 16.1 | 0.33 | 0.48 | 0.48 | 95 | 1007.0 |
| 20260507002503 | 11 | 191 | 8.0 | 19.3 | 0.28 | 0.43 | 0.43 | 95 | 1007.1 |
| 20260507002214 | 11 | 189 | 8.0 | 19.3 | 0.28 | 0.41 | 0.41 | 95 | 1007.0 |
| 20260507001503 | 11 | 191 | 6.4 | 25.7 | 0.20 | 0.33 | 0.33 | 95 | 1007.1 |
| 20260507001003 | 11 | 192 | 9.7 | 27.4 | 0.15 | 0.28 | 0.28 | 95 | 1007.0 |
| 20260507000503 | 11 | 197 | 9.7 | 27.4 | 0.13 | 0.25 | 0.25 | 95 | 1007.3 |
| 20260507000003 | 11 | 205 | 8.0 | 20.9 | 0.08 | 0.20 | 0.20 | 95 | 1007.3 |
| 20260506235503 | 11 | 193 | 8.0 | 20.9 | 0.08 | 0.18 | 0.18 | 95 | 1007.5 |
| 20260506235003 | 11 | 183 | 6.4 | 17.7 | 0.08 | 0.18 | 0.18 | 95 | 1007.2 |
| 20260506234503 | 11 | 185 | 3.2 | 17.7 | 0.08 | 0.18 | 0.18 | 95 | 1007.1 |
| 20260506234003 | 11 | 193 | 4.8 | 14.5 | 0.08 | 0.15 | 0.15 | 95 | 1007.2 |
| 20260506233504 | 11 | 190 | 6.4 | 16.1 | 0.08 | 0.15 | 0.15 | 95 | 1007.3 |
| 20260506233003 | 11 | 194 | 6.4 | 20.9 | 0.08 | 0.15 | 0.15 | 95 | 1007.4 |
| 20260506232503 | 11 | 200 | 8.0 | 20.9 | 0.10 | 0.15 | 0.15 | 94 | 1007.4 |
| 20260506232003 | 11 | 202 | 8.0 | 19.3 | 0.08 | 0.13 | 0.13 | 94 | 1007.6 |
| 20260506231712 | 11 | 203 | 8.0 | 19.3 | 0.08 | 0.13 | 0.13 | 94 | 1007.7 |
| 20260506231003 | 11 | 187 | 8.0 | 22.5 | 0.10 | 0.13 | 0.13 | 94 | 1006.8 |
| 20260506230503 | 11 | 192 | 8.0 | 29.0 | 0.10 | 0.13 | 0.13 | 94 | 1007.1 |
| 20260506230003 | 11 | 196 | 9.7 | 29.0 | 0.10 | 0.13 | 0.13 | 94 | 1007.5 |
| 20260506225503 | 11 | 192 | 9.7 | 22.5 | 0.08 | 0.10 | 0.10 | 94 | 1007.5 |
| 20260506225004 | 11 | 200 | 8.0 | 19.3 | 0.10 | 0.10 | 0.10 | 94 | 1007.9 |
| 20260506224714 | 11 | 195 | 9.7 | 29.0 | 0.10 | 0.10 | 0.10 | 94 | 1007.6 |
| 20260506224003 | 11 | 182 | 9.7 | 29.0 | 0.08 | 0.08 | 0.08 | 93 | 1007.5 |
| 20260506223503 | 11 | 175 | 6.4 | 17.7 | 0.08 | 0.08 | 0.08 | 93 | 1007.6 |
| 20260506223003 | 12 | 190 | 6.4 | 16.1 | 0.08 | 0.08 | 0.08 | 93 | 1007.8 |
| 20260506222503 | 12 | 197 | 8.0 | 20.9 | 0.05 | 0.05 | 0.05 | 93 | 1008.1 |
| 20260506222005 | 12 | 203 | 9.7 | 22.5 | 0.05 | 0.05 | 0.05 | 93 | 1008.3 |
| 20260506221504 | 12 | 206 | 9.7 | 24.1 | 0.03 | 0.03 | 0.03 | 93 | 1008.3 |
| 20260506221003 | 12 | 203 | 8.0 | 24.1 | 0.03 | 0.03 | 0.03 | 92 | 1008.3 |
| 20260506220503 | 12 | 201 | 4.8 | 16.1 | 0.03 | 0.03 | 0.03 | 92 | 1008.6 |
| 20260506220003 | 12 | 199 | 6.4 | 20.9 | 0.03 | 0.03 | 0.03 | 92 | 1008.4 |
| 20260506215714 | 12 | 196 | 8.0 | 20.9 | 0.03 | 0.03 | 0.03 | 92 | 1008.2 |
| 20260506215003 | 12 | 194 | 8.0 | 25.7 | 0.00 | 0.00 | 0.00 | 91 | 1008.3 |
| 20260506214714 | 12 | 198 | 8.0 | 25.7 | 0.00 | 0.00 | 0.00 | 91 | 1008.2 |
| 20260506214215 | 12 | 204 | 8.0 | 19.3 | 0.00 | 0.00 | 0.00 | 91 | 1008.2 |
| 20260506213503 | 12 | 202 | 11.3 | 27.4 | 0.00 | 0.00 | 0.00 | 90 | 1008.4 |
| 20260506213003 | 12 | 202 | 9.7 | 27.4 | 0.00 | 0.00 | 0.00 | 90 | 1008.5 |
| 20260506212504 | 12 | 210 | 6.4 | 27.4 | 0.00 | 0.00 | 0.00 | 89 | 1008.2 |
| 20260506212212 | 12 | 210 | 9.7 | 27.4 | 0.00 | 0.00 | 0.00 | 89 | 1008.4 |
| 20260506211503 | 12 | 205 | 11.3 | 29.0 | 0.00 | 0.00 | 0.00 | 89 | 1008.7 |
| 20260506211213 | 12 | 207 | 9.7 | 29.0 | 0.00 | 0.00 | 0.00 | 88 | 1008.8 |
| 20260506210714 | 12 | 203 | 9.7 | 20.9 | 0.00 | 0.00 | 0.00 | 88 | 1008.9 |
| 20260506210004 | 12 | 210 | 9.7 | 30.6 | 0.00 | 0.00 | 0.00 | 87 | 1008.7 |
| 20260506205503 | 12 | 215 | 11.3 | 30.6 | 0.00 | 0.00 | 0.00 | 87 | 1008.7 |
| 20260506205003 | 13 | 222 | 9.7 | 27.4 | 0.00 | 0.00 | 0.00 | 86 | 1008.2 |
| 20260506204503 | 13 | 230 | 8.0 | 24.1 | 0.00 | 0.00 | 0.00 | 86 | 1008.7 |
| 20260506204003 | 13 | 237 | 6.4 | 20.9 | 0.00 | 0.00 | 0.00 | 87 | 1008.6 |
| 20260506203504 | 13 | 212 | 8.0 | 27.4 | 0.00 | 0.00 | 0.00 | 87 | 1008.4 |
| 20260506203003 | 13 | 207 | 11.3 | 27.4 | 0.00 | 0.00 | 0.00 | 87 | 1008.1 |
| 20260506202713 | 13 | 212 | 11.3 | 27.4 | 0.00 | 0.00 | 0.00 | 87 | 1007.9 |
| 20260506202003 | 13 | 211 | 8.0 | 27.4 | 0.00 | 0.00 | 0.00 | 87 | 1008.0 |
| 20260506201503 | 13 | 206 | 9.7 | 29.0 | 0.00 | 0.00 | 0.00 | 87 | 1008.3 |
| 20260506201214 | 13 | 211 | 11.3 | 29.0 | 0.00 | 0.00 | 0.00 | 86 | 1008.3 |
| 20260506200503 | 13 | 220 | 12.9 | 40.2 | 0.00 | 0.00 | 0.00 | 86 | 1008.0 |
| 20260506200003 | 13 | 219 | 11.3 | 30.6 | 0.00 | 0.00 | 0.00 | 86 | 1008.2 |
| 20260506195503 | 13 | 216 | 12.9 | 29.0 | 0.00 | 0.00 | 0.00 | 86 | 1008.1 |
| 20260506195003 | 13 | 212 | 12.9 | 32.2 | 0.00 | 0.00 | 0.00 | 86 | 1008.3 |
| 20260506194503 | 13 | 207 | 14.5 | 33.8 | 0.00 | 0.00 | 0.00 | 85 | 1008.3 |
| 20260506194003 | 13 | 213 | 12.9 | 33.8 | 0.00 | 0.00 | 0.00 | 85 | 1008.6 |
| 20260506193503 | 13 | 212 | 9.7 | 29.0 | 0.00 | 0.00 | 0.00 | 85 | 1008.5 |
| 20260506193004 | 13 | 203 | 9.7 | 37.0 | 0.00 | 0.00 | 0.00 | 85 | 1008.7 |
| 20260506192503 | 13 | 210 | 11.3 | 37.0 | 0.00 | 0.00 | 0.00 | 85 | 1008.7 |
| 20260506192214 | 13 | 211 | 11.3 | 37.0 | 0.00 | 0.00 | 0.00 | 84 | 1008.7 |
| 20260506191503 | 13 | 215 | 12.9 | 37.0 | 0.00 | 0.00 | 0.00 | 85 | 1008.9 |
| 20260506191003 | 13 | 213 | 14.5 | 35.4 | 0.00 | 0.00 | 0.00 | 86 | 1008.9 |
| 20260506190503 | 13 | 211 | 12.9 | 37.0 | 0.00 | 0.00 | 0.00 | 85 | 1008.8 |
| 20260506190004 | 13 | 209 | 12.9 | 37.0 | 0.00 | 0.00 | 0.00 | 85 | 1008.8 |
| 20260506185713 | 13 | 206 | 12.9 | 37.0 | 0.00 | 0.00 | 0.00 | 86 | 1008.7 |
| 20260506185003 | 13 | 206 | 12.9 | 38.6 | 0.00 | 0.00 | 0.00 | 85 | 1008.8 |
| 20260506184503 | 13 | 207 | 11.3 | 38.6 | 0.00 | 0.00 | 0.00 | 85 | 1008.8 |
| 20260506184003 | 13 | 208 | 11.3 | 25.7 | 0.00 | 0.00 | 0.00 | 85 | 1009.0 |
| 20260506183503 | 13 | 217 | 11.3 | 25.7 | 0.00 | 0.00 | 0.00 | 85 | 1008.9 |
| 20260506183004 | 13 | 214 | 11.3 | 29.0 | 0.00 | 0.00 | 0.00 | 85 | 1008.9 |
| 20260506182503 | 13 | 210 | 12.9 | 29.0 | 0.00 | 0.00 | 0.00 | 85 | 1009.1 |
| 20260506182003 | 13 | 211 | 12.9 | 29.0 | 0.00 | 0.00 | 0.00 | 84 | 1009.2 |
| 20260506181503 | 13 | 212 | 11.3 | 40.2 | 0.00 | 0.00 | 0.00 | 84 | 1009.2 |
| 20260506181003 | 13 | 214 | 9.7 | 40.2 | 0.00 | 0.00 | 0.00 | 84 | 1009.3 |
| 20260506180503 | 13 | 208 | 9.7 | 32.2 | 0.00 | 0.00 | 0.00 | 84 | 1009.3 |
| 20260506180004 | 14 | 208 | 11.3 | 33.8 | 0.00 | 0.00 | 0.00 | 83 | 1009.2 |
| 20260506175503 | 14 | 207 | 12.9 | 33.8 | 0.00 | 0.00 | 0.00 | 83 | 1009.3 |
| 20260506175213 | 14 | 206 | 14.5 | 33.8 | 0.00 | 0.00 | 0.00 | 83 | 1009.3 |
| 20260506174503 | 14 | 210 | 11.3 | 27.4 | 0.00 | 0.00 | 0.00 | 82 | 1009.3 |
| 20260506174003 | 15 | 206 | 11.3 | 27.4 | 0.00 | 0.00 | 0.00 | 82 | 1009.4 |
| 20260506173505 | 15 | 205 | 9.7 | 27.4 | 0.00 | 0.00 | 0.00 | 81 | 1009.5 |
| 20260506173003 | 15 | 218 | 8.0 | 24.1 | 0.00 | 0.00 | 0.00 | 82 | 1009.5 |
| 20260506172714 | 15 | 213 | 8.0 | 24.1 | 0.00 | 0.00 | 0.00 | 81 | 1009.5 |
| 20260506172213 | 15 | 217 | 8.0 | 24.1 | 0.00 | 0.00 | 0.00 | 81 | 1009.4 |
| 20260506171503 | 15 | 202 | 11.3 | 33.8 | 0.00 | 0.00 | 0.00 | 81 | 1009.6 |
| 20260506171003 | 15 | 198 | 9.7 | 33.8 | 0.00 | 0.00 | 0.00 | 80 | 1009.5 |
| 20260506170503 | 15 | 197 | 6.4 | 19.3 | 0.00 | 0.00 | 0.00 | 81 | 1009.6 |
| 20260506170213 | 15 | 206 | 6.4 | 19.3 | 0.00 | 0.00 | 0.00 | 82 | 1009.6 |
| 20260506165503 | 15 | 213 | 9.7 | 25.7 | 0.00 | 0.00 | 0.00 | 81 | 1009.8 |
| 20260506165003 | 15 | 210 | 9.7 | 29.0 | 0.00 | 0.00 | 0.00 | 81 | 1009.9 |
| 20260506164503 | 15 | 206 | 9.7 | 29.0 | 0.00 | 0.00 | 0.00 | 82 | 1010.1 |
| 20260506164003 | 15 | 205 | 9.7 | 25.7 | 0.00 | 0.00 | 0.00 | 81 | 1010.1 |
| 20260506163503 | 15 | 208 | 9.7 | 32.2 | 0.00 | 0.00 | 0.00 | 82 | 1010.1 |
| 20260506163004 | 15 | 206 | 11.3 | 32.2 | 0.00 | 0.00 | 0.00 | 82 | 1010.1 |
| 20260506162503 | 15 | 206 | 11.3 | 32.2 | 0.00 | 0.00 | 0.00 | 81 | 1010.1 |
| 20260506162003 | 15 | 208 | 12.9 | 32.2 | 0.00 | 0.00 | 0.00 | 81 | 1010.2 |
| 20260506161503 | 15 | 212 | 14.5 | 30.6 | 0.00 | 0.00 | 0.00 | 80 | 1010.1 |
| 20260506161003 | 15 | 223 | 11.3 | 27.4 | 0.00 | 0.00 | 0.00 | 81 | 1010.2 |
| 20260506160503 | 15 | 224 | 9.7 | 25.7 | 0.00 | 0.00 | 0.00 | 82 | 1010.2 |
| 20260506160003 | 15 | 217 | 11.3 | 33.8 | 0.00 | 0.00 | 0.00 | 82 | 1010.1 |